Time;durP1;ratioP1;P1;durP2;ratioP2;P2;SDS_P1;SDS_P2;PMS_P1;PMS_P2;Temp;Humidity;BMP_temperature;BMP_pressure;BME280_temperature;BME280_humidity;BME280_pressure;Samples;Min_cycle;Max_cycle;Signal;HPM_P1;HPM_P2
2023/03/03 00:07:43;;;;;;;256.60;111.30;;;;;;;-2.76;76.23;98937.12;435373;1253;107482;-40
2023/03/03 00:17:51;;;;;;;238.80;96.30;;;;;;;-2.73;76.37;98929.68;435269;1255;97844;-39
2023/03/03 00:28:01;;;;;;;217.30;85.30;;;;;;;-2.79;76.79;98920.48;435327;1255;109551;-39
2023/03/03 00:38:14;;;;;;;244.60;82.20;;;;;;;-2.80;76.95;98919.62;435893;1255;106581;-40
2023/03/03 00:48:25;;;;;;;221.70;78.60;;;;;;;-2.81;77.25;98914.11;435260;1255;108473;-39
2023/03/03 00:58:33;;;;;;;206.70;88.90;;;;;;;-2.69;77.67;98912.70;435265;1253;97485;-41
2023/03/03 01:08:40;;;;;;;212.60;92.70;;;;;;;-2.48;77.83;98904.21;435290;1255;108100;-40
2023/03/03 01:18:48;;;;;;;188.80;83.10;;;;;;;-2.21;78.09;98894.86;435529;1256;97903;-39
2023/03/03 01:28:55;;;;;;;124.50;56.30;;;;;;;-2.06;77.89;98887.55;435412;1264;111435;-41
2023/03/03 01:39:02;;;;;;;109.50;50.90;;;;;;;-1.96;78.07;98889.23;435284;1255;108349;-39
2023/03/03 01:49:12;;;;;;;149.80;64.40;;;;;;;-1.92;78.17;98881.71;436138;1253;97881;-39
2023/03/03 01:59:18;;;;;;;161.60;62.00;;;;;;;-1.91;78.48;98877.32;438415;1255;109075;-39
2023/03/03 02:09:25;;;;;;;174.40;66.00;;;;;;;-1.93;78.68;98868.65;435215;1255;107231;-40
2023/03/03 02:19:32;;;;;;;169.80;64.10;;;;;;;-1.92;78.86;98854.10;435558;1255;98036;-40
2023/03/03 02:29:39;;;;;;;168.50;70.80;;;;;;;-1.83;79.08;98851.02;436076;1251;97562;-41
2023/03/03 02:39:46;;;;;;;168.90;74.80;;;;;;;-1.62;79.39;98852.46;435389;1254;107488;-40
2023/03/03 02:49:53;;;;;;;149.30;60.00;;;;;;;-1.39;79.47;98845.86;435438;1263;96621;-39
2023/03/03 03:00:00;;;;;;;161.20;63.80;;;;;;;-1.18;79.63;98834.23;435407;1253;109426;-39
2023/03/03 03:10:06;;;;;;;182.90;64.30;;;;;;;-1.18;79.74;98832.14;435399;1263;107304;-39
2023/03/03 03:20:14;;;;;;;163.70;62.60;;;;;;;-1.20;79.77;98846.11;436293;1253;97871;-39
2023/03/03 03:30:21;;;;;;;182.80;66.40;;;;;;;-1.27;79.84;98851.46;435537;1254;97951;-40
2023/03/03 03:40:29;;;;;;;168.70;59.00;;;;;;;-1.29;79.94;98841.08;435040;1259;459222;-40
2023/03/03 04:00:40;;;;;;;173.10;64.20;;;;;;;-1.11;80.14;98843.89;435370;1253;97506;-39
2023/03/03 04:10:48;;;;;;;128.60;50.30;;;;;;;-0.97;80.21;98832.14;435417;1255;110175;-40
2023/03/03 04:20:55;;;;;;;138.80;47.70;;;;;;;-0.79;80.49;98831.98;435351;1251;107438;-39
2023/03/03 04:31:02;;;;;;;133.00;48.50;;;;;;;-0.68;80.69;98829.23;436146;1263;97890;-40
2023/03/03 04:41:09;;;;;;;125.60;46.20;;;;;;;-0.73;80.68;98826.54;435477;1250;110751;-40
2023/03/03 04:51:17;;;;;;;110.30;38.90;;;;;;;-0.86;80.65;98837.10;437185;1253;107381;-40
2023/03/03 05:01:24;;;;;;;112.50;41.90;;;;;;;-0.90;81.10;98858.10;435953;1254;107189;-40
2023/03/03 05:31:45;;;;;;;109.60;41.50;;;;;;;-0.66;81.61;98855.84;435315;1251;97890;-39
2023/03/03 05:41:52;;;;;;;129.80;48.20;;;;;;;-0.60;81.55;98854.89;435400;1251;110732;-39
2023/03/03 05:52:00;;;;;;;114.10;39.90;;;;;;;-0.54;82.08;98837.81;435369;1251;108142;-40
2023/03/03 06:12:14;;;;;;;137.50;50.70;;;;;;;-0.49;82.18;98846.20;435432;1254;108806;-40
2023/03/03 06:22:20;;;;;;;124.80;44.90;;;;;;;-0.52;82.33;98841.33;435322;1254;97874;-40
2023/03/03 06:32:27;;;;;;;89.50;33.50;;;;;;;-0.63;82.61;98843.02;436232;1254;97865;-39
2023/03/03 06:42:35;;;;;;;70.90;31.70;;;;;;;-0.67;82.85;98853.11;435377;1254;110747;-40
2023/03/03 06:52:42;;;;;;;79.10;30.30;;;;;;;-0.65;83.25;98856.27;436412;1251;109191;-40
2023/03/03 07:02:54;;;;;;;72.50;28.00;;;;;;;-0.60;83.43;98857.33;435373;1254;98460;-40
2023/03/03 07:23:26;;;;;;;62.00;26.50;;;;;;;-0.49;83.48;98883.41;437336;1254;97865;-41
2023/03/03 07:33:35;;;;;;;101.80;37.80;;;;;;;-0.52;84.01;98885.09;435387;1255;109842;-40
2023/03/03 07:53:54;;;;;;;79.60;30.10;;;;;;;-0.60;83.86;98898.16;435514;1251;97905;-40
2023/03/03 08:04:06;;;;;;;82.70;32.30;;;;;;;-0.61;83.81;98909.71;435371;1253;97861;-40
2023/03/03 08:14:16;;;;;;;74.10;32.80;;;;;;;-0.52;83.86;98901.71;435376;1254;107354;-40
2023/03/03 08:24:21;;;;;;;;;;;;;;;-0.41;84.03;98891.94;436427;1253;97907;-41
2023/03/03 08:34:28;;;;;;;67.40;27.40;;;;;;;-0.37;84.03;98903.61;435412;1254;109340;-39
2023/03/03 08:54:41;;;;;;;85.20;32.00;;;;;;;-0.23;84.33;98909.39;435425;1254;96619;-39
2023/03/03 09:04:48;;;;;;;73.70;30.20;;;;;;;-0.19;84.52;98886.14;435445;1254;109401;-42
2023/03/03 09:14:58;;;;;;;83.50;30.50;;;;;;;-0.06;84.65;98885.94;435418;1253;108632;-40
2023/03/03 09:25:18;;;;;;;63.60;24.30;;;;;;;0.05;84.50;98901.17;435348;1253;106896;-40
2023/03/03 09:35:30;;;;;;;51.20;22.30;;;;;;;0.15;84.38;98913.98;435378;1254;97956;-41
2023/03/03 09:45:53;;;;;;;63.30;23.10;;;;;;;0.24;84.39;98922.22;435309;1250;107653;-41
2023/03/03 09:55:58;;;;;;;58.10;23.60;;;;;;;0.27;84.83;98930.13;435401;1254;96645;-40
2023/03/03 10:06:12;;;;;;;61.70;24.50;;;;;;;0.32;85.10;98931.64;435414;1250;111061;-40
2023/03/03 10:16:26;;;;;;;53.20;23.80;;;;;;;0.49;85.07;98933.16;435481;1254;108525;-40
2023/03/03 10:36:54;;;;;;;38.20;17.20;;;;;;;1.13;84.47;98930.45;435975;1253;97768;-40
2023/03/03 10:47:23;;;;;;;43.20;19.30;;;;;;;1.19;84.38;98924.98;435518;1253;107768;-41
2023/03/03 10:57:30;;;;;;;49.20;21.70;;;;;;;1.32;84.23;98911.66;435311;1256;97869;-39
2023/03/03 11:07:35;;;;;;;37.40;17.90;;;;;;;1.43;83.75;98909.61;435450;1250;98770;-39
2023/03/03 11:17:45;;;;;;;37.00;20.70;;;;;;;1.54;83.55;98908.98;435631;1253;108948;-38
2023/03/03 11:38:08;;;;;;;46.70;22.50;;;;;;;1.57;83.17;98898.91;435388;1253;96560;-39
2023/03/03 11:48:14;;;;;;;52.00;24.90;;;;;;;1.50;83.13;98892.51;435415;1253;109630;-41
2023/03/03 11:58:23;;;;;;;32.40;16.40;;;;;;;1.46;82.64;98890.00;435365;1251;107585;-40
2023/03/03 12:19:04;;;;;;;44.30;20.20;;;;;;;1.47;82.82;98879.24;435435;1253;109707;-40
2023/03/03 12:29:11;;;;;;;56.80;24.90;;;;;;;1.57;82.43;98885.80;436105;1254;109320;-39
2023/03/03 12:39:18;;;;;;;40.80;18.00;;;;;;;1.40;82.24;98878.34;436552;1250;97462;-39
2023/03/03 12:59:51;;;;;;;32.30;14.40;;;;;;;1.44;82.18;98875.21;437701;1250;108305;-40
2023/03/03 13:10:06;;;;;;;52.80;24.60;;;;;;;1.53;82.25;98878.02;436877;1252;96660;-41
2023/03/03 13:20:18;;;;;;;46.00;22.30;;;;;;;1.48;81.91;98877.75;436487;1253;110744;-40
2023/03/03 13:30:33;;;;;;;45.80;19.50;;;;;;;1.38;81.81;98876.62;436421;1253;106700;-41
2023/03/03 13:40:43;;;;;;;25.90;13.60;;;;;;;1.36;81.80;98874.04;438894;1253;97437;-40
2023/03/03 13:50:54;;;;;;;26.80;12.80;;;;;;;1.39;81.75;98871.44;437723;1253;108967;-39
2023/03/03 14:01:02;;;;;;;31.60;15.40;;;;;;;1.38;81.65;98871.01;437926;1253;107551;-39
2023/03/03 14:11:17;;;;;;;37.70;18.30;;;;;;;1.28;81.76;98862.02;436470;1253;97890;-41
2023/03/03 14:21:26;;;;;;;49.90;24.60;;;;;;;1.17;81.61;98853.13;436510;1253;97867;-40
2023/03/03 14:31:32;;;;;;;46.10;19.60;;;;;;;1.22;81.61;98855.86;436516;1253;110052;-40
2023/03/03 14:41:42;;;;;;;29.10;15.00;;;;;;;1.28;81.45;98842.61;436509;1250;108465;-38
2023/03/03 14:51:48;;;;;;;41.30;19.30;;;;;;;1.21;81.64;98833.46;436344;1251;97851;-40
2023/03/03 15:02:02;;;;;;;60.30;26.00;;;;;;;1.08;81.59;98831.06;436478;1253;107930;-40
2023/03/03 15:22:43;;;;;;;33.70;15.20;;;;;;;0.74;81.54;98832.28;436585;1252;97874;-40
2023/03/03 15:32:53;;;;;;;30.20;14.50;;;;;;;0.60;81.68;98828.61;436436;1251;108255;-40
2023/03/03 15:43:13;;;;;;;36.20;18.50;;;;;;;0.52;81.83;98821.89;436118;1251;371649;-39
2023/03/03 15:53:24;;;;;;;52.00;24.10;;;;;;;0.50;81.97;98827.14;436643;1253;110884;-41
2023/03/03 16:03:30;;;;;;;54.10;26.20;;;;;;;0.37;82.12;98822.05;436609;1253;109051;-40
2023/03/03 16:13:41;;;;;;;47.90;21.20;;;;;;;0.21;82.14;98822.14;436492;1253;97944;-41
2023/03/03 16:23:46;;;;;;;38.20;19.50;;;;;;;0.11;82.26;98819.77;436532;1251;109414;-41
2023/03/03 16:33:52;;;;;;;62.90;26.50;;;;;;;0.17;82.38;98821.38;436430;1251;107629;-40
2023/03/03 16:44:04;;;;;;;45.70;21.60;;;;;;;0.30;82.47;98823.34;436439;1249;96586;-41
2023/03/03 16:54:15;;;;;;;50.80;25.60;;;;;;;0.32;82.51;98831.93;436423;1253;106818;-41
2023/03/03 17:14:33;;;;;;;56.50;27.00;;;;;;;0.06;82.64;98831.89;436347;1253;97608;-41
2023/03/03 17:24:39;;;;;;;47.50;22.40;;;;;;;0.07;82.60;98832.51;436434;1251;109316;-40
2023/03/03 17:34:48;;;;;;;44.90;24.20;;;;;;;0.10;82.59;98838.83;436316;1251;107440;-40
2023/03/03 17:44:56;;;;;;;38.80;22.20;;;;;;;0.07;82.71;98839.08;436386;1252;97879;-42
2023/03/03 17:55:21;;;;;;;49.70;23.20;;;;;;;0.05;83.07;98847.93;436343;1253;107954;-41
2023/03/03 18:05:33;;;;;;;65.20;30.90;;;;;;;-0.06;83.17;98837.42;436370;1253;97872;-40
2023/03/03 18:15:48;;;;;;;63.60;29.70;;;;;;;-0.14;83.45;98823.52;436392;1251;97864;-40
2023/03/03 18:26:37;;;;;;;68.70;28.80;;;;;;;-0.16;83.31;98822.58;436394;1253;109555;-40
2023/03/03 18:57:18;;;;;;;43.10;21.00;;;;;;;-0.04;83.32;98827.16;436215;1251;109985;-39
2023/03/03 19:17:53;;;;;;;146.10;49.00;;;;;;;-0.12;83.65;98831.16;436369;1253;96618;-40
2023/03/03 19:28:03;;;;;;;43.00;21.30;;;;;;;-0.15;83.68;98835.80;436349;1252;110124;-40
2023/03/03 19:38:17;;;;;;;51.70;25.00;;;;;;;-0.12;83.61;98831.10;436294;1251;109154;-39
2023/03/03 19:48:23;;;;;;;42.90;21.90;;;;;;;-0.09;83.84;98820.91;436307;1253;97884;-40
2023/03/03 19:58:29;;;;;;;64.50;28.80;;;;;;;-0.08;83.76;98818.44;436371;1253;106636;-40
2023/03/03 20:08:40;;;;;;;53.50;22.50;;;;;;;-0.12;83.92;98829.77;436437;1253;96603;-40
2023/03/03 20:18:57;;;;;;;35.60;19.70;;;;;;;-0.22;83.84;98824.40;436390;1253;97896;-40
2023/03/03 20:29:27;;;;;;;35.60;19.10;;;;;;;-0.20;83.83;98806.62;436609;1251;108175;-40
2023/03/03 20:39:51;;;;;;;37.60;19.90;;;;;;;-0.11;83.61;98796.15;436835;1253;107821;-40
2023/03/03 20:50:02;;;;;;;40.80;21.70;;;;;;;-0.00;83.85;98795.48;436328;1253;97591;-40
2023/03/03 21:00:19;;;;;;;51.30;23.60;;;;;;;-0.07;83.82;98793.30;436561;1254;110193;-39
2023/03/03 21:10:26;;;;;;;48.30;22.50;;;;;;;-0.16;83.66;98779.80;436393;1253;107633;-40
2023/03/03 21:20:33;;;;;;;33.90;19.40;;;;;;;-0.27;83.62;98767.89;436480;1253;97875;-40
2023/03/03 21:30:59;;;;;;;34.20;15.90;;;;;;;-0.26;83.63;98753.63;436303;1251;109625;-40
2023/03/03 21:41:03;;;;;;;30.20;14.60;;;;;;;-0.30;83.72;98737.32;436419;1252;107926;-40
2023/03/03 21:51:08;;;;;;;47.60;20.50;;;;;;;-0.39;83.80;98718.04;436461;1254;97890;-40
2023/03/03 22:01:15;;;;;;;46.00;21.00;;;;;;;-0.51;83.96;98715.65;436394;1254;97864;-39
2023/03/03 22:11:22;;;;;;;42.20;20.50;;;;;;;-0.53;83.95;98712.91;436459;1250;108932;-40
2023/03/03 22:21:29;;;;;;;32.60;16.70;;;;;;;-0.50;83.69;98702.05;436498;1254;96987;-40
2023/03/03 22:31:36;;;;;;;37.90;17.20;;;;;;;-0.48;83.59;98692.30;436332;1251;109545;-39
2023/03/03 22:41:44;;;;;;;39.00;18.50;;;;;;;-0.49;83.85;98685.79;436496;1253;97960;-40
2023/03/03 22:51:52;;;;;;;46.10;22.50;;;;;;;-0.52;83.93;98667.40;436650;1253;110623;-40
2023/03/03 23:01:59;;;;;;;47.10;22.00;;;;;;;-0.55;83.99;98659.48;436410;1253;108754;-40
2023/03/03 23:12:04;;;;;;;60.40;24.50;;;;;;;-0.60;84.16;98638.95;436431;1262;97951;-40
2023/03/03 23:22:11;;;;;;;44.50;23.10;;;;;;;-0.56;84.02;98628.57;436345;1254;97893;-39
2023/03/03 23:32:19;;;;;;;49.80;23.60;;;;;;;-0.46;83.95;98622.36;436522;1254;107861;-40
